Time;durP1;ratioP1;P1;durP2;ratioP2;P2;SDS_P1;SDS_P2;PMS_P1;PMS_P2;Temp;Humidity;BMP_temperature;BMP_pressure;BME280_temperature;BME280_humidity;BME280_pressure;Samples;Min_cycle;Max_cycle;Signal;HPM_P1;HPM_P2
2021/12/09 00:01:01;;;;;;;32.40;4.70;;;;;;;;;;4992173;28;20213;-53
2021/12/09 00:03:28;;;;;;;38.97;5.67;;;;;;;;;;4993473;28;20736;-54
2021/12/09 00:05:56;;;;;;;65.90;9.20;;;-0.80;99.90;;;;;;4995569;28;20255;-54
2021/12/09 00:08:24;;;;;;;39.20;5.63;;;;;;;;;;4991213;28;20289;-55
2021/12/09 00:10:50;;;;;;;41.40;6.00;;;;;;;;;;4999735;28;20209;-55
2021/12/09 00:13:16;;;;;;;41.30;5.80;;;;;;;;;;4991043;28;20208;-56
2021/12/09 00:15:42;;;;;;;41.13;5.87;;;;;;;;;;4997655;28;20361;-54
2021/12/09 00:18:08;;;;;;;44.70;6.60;;;-0.90;99.90;;;;;;4996885;28;20303;-54
2021/12/09 00:20:34;;;;;;;32.90;4.73;;;;;;;;;;4993739;28;20217;-54
2021/12/09 00:23:00;;;;;;;60.37;8.47;;;;;;;;;;4998111;28;20551;-54
2021/12/09 00:25:26;;;;;;;72.07;9.43;;;;;;;;;;4992142;28;20223;-54
2021/12/09 00:27:52;;;;;;;49.83;7.03;;;;;;;;;;4997249;28;20209;-53
2021/12/09 00:30:18;;;;;;;54.37;7.80;;;-1.80;99.90;;;;;;4996924;28;20272;-54
2021/12/09 00:32:44;;;;;;;57.50;8.07;;;;;;;;;;4992615;28;20210;-54
2021/12/09 00:35:13;;;;;;;80.60;11.43;;;-0.90;99.90;;;;;;4995604;28;20228;-54
2021/12/09 00:37:50;;;;;;;44.70;6.53;;;;;;;;;;4990284;28;20462;-54
2021/12/09 00:40:16;;;;;;;54.33;7.80;;;-0.70;99.90;;;;;;4998846;28;20212;-54
2021/12/09 00:42:41;;;;;;;114.07;15.87;;;-0.60;99.90;;;;;;4981430;28;20224;-54
2021/12/09 00:45:08;;;;;;;28.40;4.40;;;;;;;;;;4995607;28;20316;-55
2021/12/09 00:47:34;;;;;;;64.47;8.93;;;;;;;;;;4994731;28;20296;-53
2021/12/09 00:50:00;;;;;;;43.27;6.27;;;;;;;;;;4992923;28;20261;-55
2021/12/09 00:52:27;;;;;;;55.27;8.00;;;;;;;;;;4993905;28;20185;-54
2021/12/09 00:54:55;;;;;;;30.57;4.53;;;-0.70;99.90;;;;;;4995452;28;20638;-54
2021/12/09 00:57:21;;;;;;;40.27;5.70;;;;;;;;;;4994102;28;20274;-55
2021/12/09 00:59:48;;;;;;;37.57;5.37;;;;;;;;;;4991833;28;20225;-55
2021/12/09 01:02:14;;;;;;;78.40;10.93;;;;;;;;;;4998617;28;20191;-54
2021/12/09 01:04:41;;;;;;;40.27;5.87;;;-0.50;99.90;;;;;;4997360;28;20201;-54
2021/12/09 01:07:07;;;;;;;72.30;10.13;;;;;;;;;;4983393;28;20402;-54
2021/12/09 01:09:33;;;;;;;39.53;5.97;;;;;;;;;;4995244;28;20304;-53
2021/12/09 01:11:59;;;;;;;26.70;4.30;;;;;;;;;;4994241;28;20225;-55
2021/12/09 01:14:25;;;;;;;28.90;4.53;;;;;;;;;;4997937;28;20605;-54
2021/12/09 01:16:51;;;;;;;41.87;6.07;;;;;;;;;;5000856;28;20264;-54
2021/12/09 01:19:17;;;;;;;44.73;6.40;;;-0.50;99.90;;;;;;5001444;28;20221;-55
2021/12/09 01:21:43;;;;;;;40.60;5.97;;;;;;;;;;5004239;28;20217;-53
2021/12/09 01:24:09;;;;;;;31.30;4.30;;;;;;;;;;4998073;28;20916;-54
2021/12/09 01:26:35;;;;;;;29.27;4.07;;;-0.80;99.90;;;;;;4992276;28;20233;-53
2021/12/09 01:29:07;;;;;;;38.67;5.43;;;-0.60;99.90;;;;;;4999513;28;20739;-53
2021/12/09 01:31:37;;;;;;;46.17;6.57;;;;;;;;;;4994758;28;20220;-54
2021/12/09 01:34:04;;;;;;;37.90;5.70;;;-0.30;99.90;;;;;;4992386;28;20232;-53
2021/12/09 01:36:32;;;;;;;66.67;9.47;;;-0.50;99.90;;;;;;4995976;28;20217;-54
2021/12/09 01:38:59;;;;;;;45.83;6.57;;;-0.40;99.90;;;;;;4992575;28;20220;-55
2021/12/09 01:41:24;;;;;;;75.63;10.40;;;-0.60;99.90;;;;;;4996430;28;20224;-54
2021/12/09 01:43:51;;;;;;;50.20;7.17;;;;;;;;;;4997727;28;20204;-54
2021/12/09 01:46:20;;;;;;;68.57;9.67;;;0.50;99.90;;;;;;4981317;28;20213;-55
2021/12/09 01:48:48;;;;;;;57.20;8.23;;;-0.70;99.90;;;;;;4991527;28;20217;-54
2021/12/09 01:51:14;;;;;;;45.17;6.47;;;-0.70;99.90;;;;;;4994671;28;20579;-54
2021/12/09 01:53:41;;;;;;;31.03;4.87;;;;;;;;;;4998971;28;20217;-55
2021/12/09 01:56:10;;;;;;;60.27;8.57;;;-0.60;99.90;;;;;;4996930;28;20633;-55
2021/12/09 01:58:36;;;;;;;54.40;7.80;;;-0.60;99.90;;;;;;4994326;28;20786;-53
2021/12/09 02:01:04;;;;;;;48.70;7.00;;;-0.70;99.90;;;;;;4997609;28;20214;-54
2021/12/09 02:03:30;;;;;;;49.63;7.17;;;;;;;;;;4989323;28;20221;-54
2021/12/09 02:05:56;;;;;;;64.70;8.97;;;;;;;;;;5001331;28;20347;-54
2021/12/09 02:08:23;;;;;;;70.57;9.77;;;;;;;;;;4990963;28;20788;-55
2021/12/09 02:10:50;;;;;;;29.07;4.53;;;-0.70;99.90;;;;;;4993521;28;20769;-54
2021/12/09 02:13:17;;;;;;;39.07;5.60;;;-0.70;99.90;;;;;;4994322;28;20216;-55
2021/12/09 02:15:43;;;;;;;42.57;6.13;;;-0.90;99.90;;;;;;4992302;28;20249;-55
2021/12/09 02:18:12;;;;;;;86.57;11.97;;;-0.60;99.90;;;;;;4991776;28;20229;-54
2021/12/09 02:20:39;;;;;;;71.57;10.10;;;-0.60;99.90;;;;;;4997089;28;20220;-54
2021/12/09 02:23:10;;;;;;;58.20;8.20;;;-0.40;99.90;;;;;;4997714;28;20189;-54
2021/12/09 02:25:37;;;;;;;30.87;4.70;;;-0.80;99.90;;;;;;4995148;28;20221;-55
2021/12/09 02:28:03;;;;;;;52.93;7.30;;;-0.70;99.90;;;;;;4992550;28;20215;-54
2021/12/09 02:30:29;;;;;;;42.37;6.17;;;;;;;;;;4993001;28;20613;-55
2021/12/09 02:32:55;;;;;;;49.13;7.17;;;;;;;;;;4995674;28;20332;-54
2021/12/09 02:35:21;;;;;;;44.40;6.30;;;;;;;;;;4995968;28;20237;-55
2021/12/09 02:37:49;;;;;;;33.53;4.83;;;;;;;;;;4999380;28;20313;-54
2021/12/09 02:40:16;;;;;;;77.90;10.60;;;-0.60;99.90;;;;;;4997875;28;20319;-54
2021/12/09 02:42:42;;;;;;;165.13;22.33;;;;;;;;;;4979194;28;20225;-56
2021/12/09 02:45:09;;;;;;;74.33;10.43;;;-0.70;99.90;;;;;;4990528;28;20320;-54
2021/12/09 02:47:36;;;;;;;40.17;5.80;;;-0.60;99.90;;;;;;4995734;28;20216;-54
2021/12/09 02:50:05;;;;;;;80.77;11.23;;;-0.60;99.90;;;;;;4992774;28;20560;-55
2021/12/09 02:52:31;;;;;;;58.70;8.63;;;;;;;;;;4991660;28;21316;-55
2021/12/09 02:54:58;;;;;;;75.03;10.33;;;;;;;;;;4997200;28;20228;-54
2021/12/09 02:57:24;;;;;;;69.77;9.97;;;-0.60;99.90;;;;;;4993542;28;20256;-55
2021/12/09 02:59:50;;;;;;;36.10;5.33;;;;;;;;;;4996054;28;20220;-54
2021/12/09 03:02:15;;;;;;;36.10;5.37;;;-0.80;99.90;;;;;;4997853;28;20276;-54
2021/12/09 03:04:47;;;;;;;40.93;5.77;;;-0.60;99.90;;;;;;4998265;28;20260;-55
2021/12/09 03:07:27;;;;;;;39.47;5.83;;;-0.70;99.90;;;;;;4992530;28;20217;-54
2021/12/09 03:10:00;;;;;;;52.57;7.43;;;-0.90;99.90;;;;;;4991408;28;20712;-55
2021/12/09 03:12:29;;;;;;;38.27;5.10;;;-0.60;99.90;;;;;;4998542;28;20218;-54
2021/12/09 03:14:55;;;;;;;33.47;4.80;;;;;;;;;;4993516;28;20609;-54
2021/12/09 03:17:21;;;;;;;52.83;7.37;;;;;;;;;;4990150;28;20220;-54
2021/12/09 03:19:48;;;;;;;41.73;6.00;;;-0.60;99.90;;;;;;4993624;28;20193;-55
2021/12/09 03:22:14;;;;;;;57.63;8.07;;;-0.70;99.90;;;;;;4993081;28;20221;-54
2021/12/09 03:24:41;;;;;;;40.90;6.03;;;;;;;;;;4995707;28;20256;-54
2021/12/09 03:27:07;;;;;;;37.43;5.47;;;-0.60;99.90;;;;;;4996501;28;20223;-55
2021/12/09 03:29:33;;;;;;;39.87;5.73;;;;;;;;;;4993573;28;20720;-55
2021/12/09 03:32:03;;;;;;;40.33;5.80;;;-0.60;99.90;;;;;;4993014;28;20599;-54
2021/12/09 03:34:31;;;;;;;47.30;7.13;;;-0.60;99.90;;;;;;4989091;28;20229;-54
2021/12/09 03:37:00;;;;;;;48.37;7.17;;;-0.60;99.90;;;;;;4994206;28;20225;-54
2021/12/09 03:39:31;;;;;;;45.93;6.67;;;-0.60;99.90;;;;;;4994427;28;20573;-55
2021/12/09 03:41:57;;;;;;;46.50;6.53;;;-0.60;99.90;;;;;;4997061;28;20291;-54
2021/12/09 03:44:24;;;;;;;40.30;5.87;;;-0.60;99.90;;;;;;4990292;28;20248;-55
2021/12/09 03:46:52;;;;;;;40.67;6.03;;;-0.60;99.90;;;;;;4999439;28;20186;-54
2021/12/09 03:49:19;;;;;;;27.07;4.20;;;-0.70;99.90;;;;;;4991492;28;20606;-55
2021/12/09 03:51:45;;;;;;;27.03;4.43;;;;;;;;;;5001544;28;20246;-55
2021/12/09 03:54:12;;;;;;;31.83;4.77;;;-0.60;99.90;;;;;;5000998;28;20486;-54
2021/12/09 03:56:38;;;;;;;69.07;9.30;;;-0.70;99.90;;;;;;4994573;28;20209;-55
2021/12/09 03:59:07;;;;;;;36.67;5.00;;;-0.70;99.90;;;;;;4992371;28;20189;-55
2021/12/09 04:01:34;;;;;;;49.50;7.13;;;-1.00;99.90;;;;;;4992576;28;20217;-54
2021/12/09 04:03:59;;;;;;;26.73;4.37;;;;;;;;;;4995911;28;20218;-53
2021/12/09 04:06:27;;;;;;;76.37;10.80;;;;;;;;;;4992598;28;20826;-55
2021/12/09 04:08:53;;;;;;;40.67;5.87;;;;;;;;;;4992926;28;20222;-55
2021/12/09 04:11:19;;;;;;;38.83;5.43;;;;;;;;;;4991680;28;20217;-54
2021/12/09 04:13:45;;;;;;;41.13;6.10;;;;;;;;;;4992364;28;20580;-55
2021/12/09 04:16:11;;;;;;;61.83;8.83;;;;;;;;;;4988477;28;20586;-54
2021/12/09 04:18:39;;;;;;;49.90;7.00;;;-0.50;99.90;;;;;;4983561;28;20702;-54
2021/12/09 04:21:05;;;;;;;61.17;8.63;;;;;;;;;;4993268;28;20275;-54
2021/12/09 04:23:31;;;;;;;39.27;5.70;;;;;;;;;;4993724;28;20221;-54
2021/12/09 04:25:57;;;;;;;72.90;10.07;;;0.90;99.90;;;;;;4998370;28;20213;-54
2021/12/09 04:28:23;;;;;;;80.20;11.00;;;;;;;;;;4994364;28;20361;-55
2021/12/09 04:30:49;;;;;;;78.07;10.93;;;;;;;;;;4975562;28;20455;-55
2021/12/09 04:33:15;;;;;;;43.33;6.17;;;;;;;;;;4989740;28;20610;-54
2021/12/09 04:35:41;;;;;;;38.27;5.70;;;;;;;;;;4993880;28;20235;-55
2021/12/09 04:38:07;;;;;;;60.70;8.60;;;;;;;;;;4990422;28;20189;-54
2021/12/09 04:40:33;;;;;;;43.13;6.43;;;;;;;;;;5003336;28;20247;-54
2021/12/09 04:43:02;;;;;;;58.87;8.30;;;;;;;;;;4989061;28;20228;-54
2021/12/09 04:45:30;;;;;;;42.53;6.23;;;;;;;;;;4990752;28;20705;-54
2021/12/09 04:47:55;;;;;;;34.27;5.17;;;-0.40;99.90;;;;;;4993639;28;20220;-54
2021/12/09 04:50:21;;;;;;;57.57;8.43;;;;;;;;;;4996033;28;20217;-54
2021/12/09 04:52:47;;;;;;;61.97;8.33;;;;;;;;;;4994883;28;20192;-54
2021/12/09 04:55:13;;;;;;;50.83;7.30;;;;;;;;;;4999689;28;20239;-54
2021/12/09 04:57:39;;;;;;;57.20;7.93;;;;;;;;;;4996498;28;20224;-55
2021/12/09 05:00:09;;;;;;;76.90;10.80;;;-0.70;99.90;;;;;;4993013;28;20220;-55
2021/12/09 05:05:42;;;;;;;44.60;6.27;;;-0.60;99.90;;;;;;4985414;28;20214;-55
2021/12/09 05:08:10;;;;;;;46.53;6.77;;;-0.10;99.90;;;;;;4994098;28;20188;-54
2021/12/09 05:10:52;;;;;;;55.30;7.80;;;-0.70;99.90;;;;;;4995074;28;20630;-53
2021/12/09 05:13:19;;;;;;;74.60;10.43;;;-0.90;99.90;;;;;;4993658;28;20217;-54
2021/12/09 05:15:46;;;;;;;46.30;6.57;;;-0.70;99.90;;;;;;4994558;28;20264;-55
2021/12/09 05:18:13;;;;;;;58.60;8.10;;;-0.70;99.90;;;;;;4997270;28;20304;-55
2021/12/09 05:20:38;;;;;;;89.23;12.30;;;-0.50;99.90;;;;;;4996480;28;20233;-54
2021/12/09 05:23:04;;;;;;;59.40;8.30;;;;;;;;;;4994854;28;20610;-55
2021/12/09 05:25:31;;;;;;;26.47;4.30;;;1.40;99.90;;;;;;4992752;28;20212;-54
2021/12/09 05:27:57;;;;;;;38.90;5.33;;;;;;;;;;4992666;28;20229;-55
2021/12/09 05:30:25;;;;;;;39.90;5.57;;;-0.60;99.90;;;;;;4992659;28;20632;-53
2021/12/09 05:32:52;;;;;;;35.03;5.13;;;-0.60;99.90;;;;;;4991899;28;20304;-53
2021/12/09 05:35:18;;;;;;;45.47;6.80;;;-0.60;99.90;;;;;;4988247;28;20543;-55
2021/12/09 05:37:47;;;;;;;36.23;5.00;;;-0.60;99.90;;;;;;4997078;28;20193;-55
2021/12/09 05:40:15;;;;;;;26.33;4.23;;;-0.60;99.90;;;;;;4995414;28;20609;-54
2021/12/09 05:42:41;;;;;;;102.53;14.20;;;;;;;;;;4990979;28;20217;-55
2021/12/09 05:45:06;;;;;;;41.13;5.63;;;-0.60;99.90;;;;;;4992401;28;20593;-55
2021/12/09 05:47:32;;;;;;;37.03;5.40;;;;;;;;;;4992211;28;20245;-55
2021/12/09 05:49:58;;;;;;;41.77;6.07;;;;;;;;;;4997950;28;20190;-55
2021/12/09 05:52:24;;;;;;;54.10;7.40;;;;;;;;;;4975685;28;20228;-55
2021/12/09 05:54:50;;;;;;;53.60;7.70;;;;;;;;;;4993027;28;20602;-55
2021/12/09 05:57:16;;;;;;;44.33;6.50;;;;;;;;;;4999634;28;20517;-54
2021/12/09 05:59:42;;;;;;;35.27;5.17;;;;;;;;;;4990808;28;20496;-54
2021/12/09 06:02:13;;;;;;;54.90;7.63;;;-0.50;99.90;;;;;;4991656;28;20182;-54
2021/12/09 06:04:39;;;;;;;37.43;5.23;;;;;;;;;;4995703;28;20253;-54
2021/12/09 06:07:05;;;;;;;34.87;4.93;;;;;;;;;;4999801;28;20255;-54
2021/12/09 06:09:31;;;;;;;40.70;5.77;;;;;;;;;;4994704;28;20214;-54
2021/12/09 06:11:57;;;;;;;38.90;5.10;;;;;;;;;;4979125;28;20220;-49
2021/12/09 06:14:23;;;;;;;43.83;5.63;;;;;;;;;;5011321;28;20228;-49
2021/12/09 06:16:49;;;;;;;35.53;4.80;;;;;;;;;;5010737;28;20178;-49
2021/12/09 06:19:15;;;;;;;48.27;6.27;;;;;;;;;;5010524;28;20225;-48
2021/12/09 06:21:41;;;;;;;42.63;5.63;;;;;;;;;;5010624;28;20721;-49
2021/12/09 06:24:07;;;;;;;9.07;1.57;;;;;;;;;;5012180;28;20231;-49
2021/12/09 06:26:33;;;;;;;22.87;3.23;;;;;;;;;;5012530;28;20700;-49
2021/12/09 06:29:00;;;;;;;30.03;4.07;;;-0.50;99.90;;;;;;5012652;28;20337;-49
2021/12/09 06:31:26;;;;;;;33.70;4.43;;;-0.60;99.90;;;;;;5012586;28;20216;-48
2021/12/09 06:33:52;;;;;;;39.83;5.27;;;;;;;;;;5012342;28;20220;-49
2021/12/09 06:36:19;;;;;;;28.43;3.87;;;-0.40;99.90;;;;;;5012209;28;20277;-48
2021/12/09 06:38:45;;;;;;;44.37;5.67;;;-0.70;99.90;;;;;;5011748;28;20251;-49
2021/12/09 06:41:11;;;;;;;24.70;3.57;;;-0.40;99.90;;;;;;5012294;28;20173;-48
2021/12/09 06:43:38;;;;;;;27.97;3.93;;;-0.60;99.90;;;;;;4994684;28;20200;-48
2021/12/09 06:46:07;;;;;;;35.53;4.67;;;-0.80;99.90;;;;;;5011854;28;20220;-48
2021/12/09 06:48:33;;;;;;;37.70;4.93;;;-0.80;99.90;;;;;;5011991;28;20227;-48
2021/12/09 06:51:01;;;;;;;29.20;4.07;;;-0.60;99.90;;;;;;5012376;28;20213;-47
2021/12/09 06:53:28;;;;;;;26.73;3.67;;;-0.70;99.90;;;;;;5011881;28;20217;-47
2021/12/09 06:55:54;;;;;;;12.60;2.03;;;;;;;;;;5012406;28;20248;-48
2021/12/09 06:58:21;;;;;;;29.10;3.97;;;;;;;;;;5011817;28;20322;-48
2021/12/09 07:00:48;;;;;;;51.17;6.63;;;-0.70;99.90;;;;;;5011778;28;20212;-48
2021/12/09 07:03:16;;;;;;;24.83;3.50;;;-0.80;99.90;;;;;;5011717;28;20420;-48
2021/12/09 07:05:45;;;;;;;29.27;4.07;;;-0.60;99.90;;;;;;5010787;28;20252;-47
2021/12/09 07:08:12;;;;;;;32.03;4.30;;;-0.70;99.90;;;;;;5011790;28;20165;-47
2021/12/09 07:10:38;;;;;;;11.30;1.93;;;;;;;;;;5012064;28;20609;-47
2021/12/09 07:13:05;;;;;;;45.80;5.90;;;;;;;;;;5010194;28;20344;-48
2021/12/09 07:15:31;;;;;;;29.57;4.13;;;-0.70;99.90;;;;;;5011156;28;20235;-48
2021/12/09 07:17:57;;;;;;;24.33;3.47;;;;;;;;;;5011046;28;20307;-47
2021/12/09 07:20:23;;;;;;;28.63;3.97;;;;;;;;;;5011624;28;20291;-48
2021/12/09 07:22:49;;;;;;;41.33;5.43;;;-0.70;99.90;;;;;;5011369;28;20181;-47
2021/12/09 07:25:16;;;;;;;42.93;5.60;;;-0.80;99.90;;;;;;5010829;28;20300;-48
2021/12/09 07:27:42;;;;;;;9.87;1.73;;;;;;;;;;5011343;28;20219;-47
2021/12/09 07:30:09;;;;;;;13.40;2.13;;;-0.70;99.90;;;;;;5011110;28;20213;-48
2021/12/09 07:32:35;;;;;;;46.23;6.00;;;-0.70;99.90;;;;;;4993390;28;20363;-48
2021/12/09 07:35:03;;;;;;;41.70;5.43;;;-0.80;99.90;;;;;;4993139;28;20312;-48
2021/12/09 07:37:29;;;;;;;29.53;4.07;;;;;;;;;;5011541;28;20161;-48
2021/12/09 07:39:55;;;;;;;26.70;3.70;;;;;;;;;;5010844;28;20221;-48
2021/12/09 07:42:21;;;;;;;29.57;4.10;;;;;;;;;;5011291;28;20227;-48
2021/12/09 07:44:47;;;;;;;31.13;4.33;;;;;;;;;;5010234;28;20283;-47
2021/12/09 07:47:13;;;;;;;34.47;4.80;;;;;;;;;;5011116;28;20519;-48
2021/12/09 07:49:38;;;;;;;9.40;1.57;;;-0.60;99.90;;;;;;5011333;28;20623;-48
2021/12/09 07:52:04;;;;;;;28.20;3.80;;;-0.50;99.90;;;;;;5011180;28;20209;-48
2021/12/09 07:54:31;;;;;;;33.47;4.50;;;-0.70;99.90;;;;;;5009871;28;20367;-48
2021/12/09 07:56:57;;;;;;;37.37;4.97;;;-0.60;99.90;;;;;;5010621;28;20220;-48
2021/12/09 07:59:23;;;;;;;29.03;3.90;;;;;;;;;;5010247;28;20267;-48
2021/12/09 08:01:49;;;;;;;37.10;4.90;;;-0.50;99.90;;;;;;5011154;28;20630;-48
2021/12/09 08:04:15;;;;;;;22.07;3.17;;;;;;;;;;5010465;28;20265;-47
2021/12/09 08:06:41;;;;;;;43.50;5.67;;;;;;;;;;5010597;28;20220;-47
2021/12/09 08:09:08;;;;;;;41.70;5.43;;;;;;;;;;5010070;28;20239;-46
2021/12/09 08:11:39;;;;;;;36.47;4.87;;;-0.70;99.90;;;;;;5010349;28;20221;-47
2021/12/09 08:14:05;;;;;;;28.57;4.03;;;-0.70;99.90;;;;;;5009837;28;20223;-47
2021/12/09 08:16:37;;;;;;;32.40;4.40;;;-0.50;99.90;;;;;;5010947;28;20162;-48
2021/12/09 08:19:06;;;;;;;31.83;4.27;;;-0.70;99.90;;;;;;5010422;28;20224;-48
2021/12/09 08:21:36;;;;;;;24.50;3.43;;;;;;;;;;5010160;28;20213;-47
2021/12/09 08:24:02;;;;;;;29.77;4.00;;;;;;;;;;4991989;28;20562;-48
2021/12/09 08:26:28;;;;;;;36.13;4.77;;;-0.60;99.90;;;;;;5010029;28;20262;-47
2021/12/09 08:28:54;;;;;;;47.80;6.10;;;;;;;;;;5010436;28;20241;-47
2021/12/09 08:31:20;;;;;;;34.00;4.53;;;-0.90;99.90;;;;;;5010171;28;20212;-48
2021/12/09 08:33:46;;;;;;;31.00;4.20;;;-0.70;99.90;;;;;;5010188;28;20217;-48
2021/12/09 08:36:12;;;;;;;30.13;4.10;;;;;;;;;;5009440;28;20736;-48
2021/12/09 08:38:38;;;;;;;31.17;4.23;;;;;;;;;;5009698;28;20212;-48
2021/12/09 08:41:05;;;;;;;49.37;6.53;;;-0.60;99.90;;;;;;5009696;28;20173;-48
2021/12/09 08:43:31;;;;;;;38.10;5.07;;;;;;;;;;5009238;28;20193;-48
2021/12/09 08:45:57;;;;;;;43.30;5.70;;;-0.70;99.90;;;;;;5009164;28;20283;-48
2021/12/09 08:48:25;;;;;;;51.80;6.67;;;-0.60;99.90;;;;;;4992247;28;20732;-48
2021/12/09 08:50:51;;;;;;;30.20;4.13;;;;;;;;;;5010143;28;20636;-48
2021/12/09 08:53:19;;;;;;;44.77;5.87;;;-0.60;99.90;;;;;;5010141;28;20184;-47
2021/12/09 08:55:45;;;;;;;27.87;3.90;;;;;;;;;;5011043;28;20225;-48
2021/12/09 08:58:13;;;;;;;36.23;4.80;;;-0.60;99.90;;;;;;5009649;28;20223;-48
2021/12/09 09:00:39;;;;;;;36.10;4.83;;;-0.50;99.90;;;;;;5009003;28;20311;-47
2021/12/09 09:03:05;;;;;;;47.23;6.17;;;-0.40;99.90;;;;;;5009719;28;20274;-48
2021/12/09 09:05:32;;;;;;;29.90;4.03;;;-0.40;99.90;;;;;;5009886;28;20212;-48
2021/12/09 09:07:59;;;;;;;28.77;3.93;;;-0.50;99.90;;;;;;5010705;28;20235;-48
2021/12/09 09:10:27;;;;;;;31.20;4.17;;;-0.40;99.90;;;;;;5010281;28;20212;-48
2021/12/09 09:12:54;;;;;;;34.60;4.60;;;-0.10;99.90;;;;;;5010035;28;20248;-48
2021/12/09 09:15:22;;;;;;;20.03;2.93;;;-0.40;99.90;;;;;;5009964;28;20589;-48
2021/12/09 09:17:48;;;;;;;20.53;2.97;;;-0.40;99.90;;;;;;5010329;28;20221;-48
2021/12/09 09:20:16;;;;;;;17.73;2.73;;;-0.50;99.90;;;;;;5009962;28;20187;-48
2021/12/09 09:22:42;;;;;;;31.33;4.23;;;-0.30;99.90;;;;;;5010489;28;20511;-48
2021/12/09 09:25:17;;;;;;;34.27;4.57;;;-0.30;99.90;;;;;;5009242;28;20228;-47
2021/12/09 09:27:46;;;;;;;27.57;3.73;;;-0.20;99.90;;;;;;5010025;28;20971;-48
2021/12/09 09:30:17;;;;;;;32.83;4.47;;;-0.60;99.90;;;;;;5009367;28;20216;-48
2021/12/09 09:32:43;;;;;;;25.37;3.50;;;;;;;;;;5010096;28;20347;-48
2021/12/09 09:35:09;;;;;;;25.00;3.60;;;-0.50;99.90;;;;;;5009399;28;20292;-48
2021/12/09 09:37:36;;;;;;;34.83;4.67;;;-0.40;99.90;;;;;;5013490;28;20181;-48
2021/12/09 09:40:07;;;;;;;42.40;5.57;;;-0.30;99.90;;;;;;5012928;28;20219;-48
2021/12/09 09:43:27;;;;;;;35.40;4.73;;;-0.30;99.90;;;;;;5013309;28;20803;-48
2021/12/09 09:45:20;;;;;;;15.17;2.30;;;;;;;;;;5002005;28;20227;-48
2021/12/09 09:47:45;;;;;;;20.60;2.97;;;-0.30;99.90;;;;;;5012818;28;20217;-48
2021/12/09 09:50:11;;;;;;;28.83;4.10;;;-0.30;99.90;;;;;;5013168;28;20176;-48
2021/12/09 09:52:38;;;;;;;25.60;3.57;;;-0.50;99.90;;;;;;5013609;28;20650;-48
2021/12/09 09:55:08;;;;;;;27.87;3.93;;;-0.40;99.90;;;;;;5012481;28;20232;-48
2021/12/09 09:57:34;;;;;;;40.97;5.40;;;;;;;;;;5012824;28;20287;-48
2021/12/09 09:59:59;;;;;;;20.60;2.93;;;-0.30;99.90;;;;;;5012533;28;20216;-47
2021/12/09 10:02:25;;;;;;;33.13;4.43;;;-0.70;99.90;;;;;;5012708;28;20291;-48
2021/12/09 10:05:00;;;;;;;37.27;5.00;;;-0.30;99.90;;;;;;5013037;28;20221;-48
2021/12/09 10:07:26;;;;;;;43.47;5.70;;;-0.10;99.90;;;;;;5012564;28;20211;-48
2021/12/09 10:09:53;;;;;;;45.53;5.93;;;-0.20;99.90;;;;;;5012180;28;20765;-47
2021/12/09 10:12:20;;;;;;;36.33;4.80;;;-0.20;99.90;;;;;;5012544;28;20227;-48
2021/12/09 10:14:51;;;;;;;42.17;5.53;;;-0.10;99.90;;;;;;5011916;28;20221;-47
2021/12/09 10:17:24;;;;;;;33.77;4.73;;;-0.10;99.90;;;;;;4994816;28;20255;-48
2021/12/09 10:19:51;;;;;;;33.47;4.53;;;0.50;99.90;;;;;;5013335;28;20227;-48
2021/12/09 10:22:20;;;;;;;29.73;4.10;;;0.00;99.90;;;;;;5012674;28;20226;-48
2021/12/09 10:24:54;;;;;;;21.07;3.07;;;0.00;99.90;;;;;;5012272;28;20224;-48
2021/12/09 10:27:28;;;;;;;21.27;3.20;;;-0.20;99.90;;;;;;5012086;28;20212;-48
2021/12/09 10:29:59;;;;;;;50.73;6.50;;;-0.20;99.90;;;;;;5012202;28;20223;-48
2021/12/09 10:32:30;;;;;;;37.57;5.00;;;-0.20;99.90;;;;;;5012357;28;20208;-48
2021/12/09 10:35:07;;;;;;;42.53;5.63;;;-0.20;99.90;;;;;;5012667;28;20236;-48
2021/12/09 10:37:34;;;;;;;39.70;5.30;;;0.50;99.90;;;;;;5012107;28;20465;-48
2021/12/09 10:40:11;;;;;;;38.57;5.17;;;0.20;99.90;;;;;;5011482;28;20209;-48
2021/12/09 10:42:43;;;;;;;36.60;4.80;;;0.00;99.90;;;;;;5011371;28;20208;-48
2021/12/09 10:45:31;;;;;;;46.80;6.13;;;0.00;99.90;;;;;;5011252;28;20213;-47
2021/12/09 10:48:20;;;;;;;23.17;3.33;;;0.00;99.90;;;;;;5010426;28;20213;-47
2021/12/09 10:51:12;;;;;;;42.17;5.53;;;0.10;99.90;;;;;;5011845;28;20213;-48
2021/12/09 10:53:50;;;;;;;33.03;4.53;;;0.00;99.90;;;;;;5011705;28;20212;-48
2021/12/09 10:56:30;;;;;;;39.47;5.37;;;0.10;99.90;;;;;;5011857;28;20200;-47
2021/12/09 10:58:56;;;;;;;37.20;4.97;;;0.10;99.90;;;;;;5012154;28;20177;-48
2021/12/09 11:01:24;;;;;;;36.50;4.83;;;0.10;99.90;;;;;;5011775;28;20304;-47
2021/12/09 11:03:58;;;;;;;19.10;2.87;;;0.10;99.90;;;;;;5011584;28;20208;-48
2021/12/09 11:06:37;;;;;;;35.43;4.73;;;0.20;99.90;;;;;;5011443;28;20712;-47
2021/12/09 11:09:08;;;;;;;31.97;4.33;;;0.30;99.90;;;;;;5011478;28;20282;-48
2021/12/09 11:11:41;;;;;;;123.00;16.60;;;0.20;99.90;;;;;;4984661;28;20216;-53
2021/12/09 11:14:09;;;;;;;84.60;11.93;;;;;;;;;;4986133;28;20276;-53
2021/12/09 11:16:39;;;;;;;88.87;12.10;;;0.40;99.90;;;;;;4980929;28;20979;-53
2021/12/09 11:19:13;;;;;;;60.37;8.23;;;0.30;99.90;;;;;;4986865;28;20325;-53
2021/12/09 11:21:44;;;;;;;118.27;16.30;;;0.30;99.90;;;;;;4985422;28;20208;-53
2021/12/09 11:24:20;;;;;;;83.47;11.43;;;0.20;99.90;;;;;;4984595;28;20209;-53
2021/12/09 11:26:54;;;;;;;63.33;8.77;;;0.30;99.90;;;;;;4986742;28;20712;-53
2021/12/09 11:29:25;;;;;;;94.10;13.30;;;0.20;99.90;;;;;;4988818;28;20228;-53
2021/12/09 11:32:16;;;;;;;66.53;9.23;;;0.30;99.90;;;;;;4989554;28;20539;-53
2021/12/09 11:34:53;;;;;;;85.67;11.70;;;0.30;99.90;;;;;;4994745;28;20233;-53
2021/12/09 11:40:28;;;;;;;64.90;8.80;;;0.20;99.90;;;;;;4986804;28;20221;-53
2021/12/09 11:42:59;;;;;;;74.03;10.00;;;0.20;99.90;;;;;;4977108;28;20307;-53
2021/12/09 11:45:36;;;;;;;94.67;12.70;;;0.20;99.90;;;;;;4985569;28;20582;-53
2021/12/09 11:48:04;;;;;;;128.37;17.57;;;0.20;99.90;;;;;;4987313;28;20217;-53
2021/12/09 11:50:33;;;;;;;75.57;10.37;;;-1.90;99.90;;;;;;4988863;28;20289;-53
2021/12/09 11:53:01;;;;;;;64.27;9.17;;;0.10;99.90;;;;;;4983131;28;20181;-54
2021/12/09 11:55:37;;;;;;;120.27;16.80;;;-0.10;99.90;;;;;;4987113;28;20582;-55
2021/12/09 11:58:11;;;;;;;62.63;8.90;;;0.20;99.90;;;;;;4980749;28;20212;-55
2021/12/09 12:07:04;;;;;;;152.50;20.83;;;0.70;99.90;;;;;;4976207;28;20325;-54
2021/12/09 12:12:40;;;;;;;48.73;7.13;;;0.10;99.90;;;;;;4973990;28;20853;-55
2021/12/09 12:18:49;;;;;;;53.37;7.50;;;-0.60;99.90;;;;;;4992911;28;20239;-54
2021/12/09 12:24:02;;;;;;;46.83;6.80;;;;;;;;;;4989842;28;20662;-54
2021/12/09 12:26:48;;;;;;;99.17;13.83;;;0.20;99.90;;;;;;4987263;28;20465;-54
2021/12/09 12:32:25;;;;;;;125.53;17.40;;;0.50;99.90;;;;;;4983175;28;20212;-54
2021/12/09 12:40:27;;;;;;;100.53;14.27;;;0.30;99.90;;;;;;4978354;28;20383;-54
2021/12/09 12:43:02;;;;;;;53.50;7.43;;;0.20;99.90;;;;;;4997254;28;20386;-54
2021/12/09 12:54:10;;;;;;;58.60;8.10;;;0.10;99.90;;;;;;4989120;28;20243;-54
2021/12/09 12:56:45;;;;;;;95.47;12.97;;;0.30;99.90;;;;;;4978069;28;20278;-54
2021/12/09 12:59:13;;;;;;;132.43;18.47;;;;;;;;;;4981525;28;20185;-54
2021/12/09 13:01:59;;;;;;;127.50;17.20;;;0.40;99.90;;;;;;4989927;28;20177;-55
2021/12/09 13:10:25;;;;;;;215.33;29.47;;;-2.60;99.90;;;;;;4971536;28;20232;-54
2021/12/09 13:13:08;;;;;;;56.03;7.93;;;0.20;99.90;;;;;;4993685;28;20209;-54
2021/12/09 13:15:49;;;;;;;60.07;8.20;;;;;;;;;;4996475;28;20647;-54
2021/12/09 13:18:45;;;;;;;151.57;21.00;;;0.20;99.90;;;;;;4984396;28;20824;-54
2021/12/09 13:21:49;;;;;;;75.33;10.00;;;0.30;99.90;;;;;;4986542;28;20359;-54
2021/12/09 13:24:35;;;;;;;80.73;10.87;;;0.20;99.90;;;;;;4990680;28;20771;-54
2021/12/09 13:30:11;;;;;;;124.63;16.90;;;0.30;99.90;;;;;;4987742;28;20578;-54
2021/12/09 13:32:50;;;;;;;154.13;20.70;;;;;;;;;;4988199;28;20222;-55
2021/12/09 13:35:27;;;;;;;192.33;26.33;;;;;;;;;;4988561;28;20222;-54
2021/12/09 13:40:38;;;;;;;143.93;19.27;;;;;;;;;;4982721;28;20401;-54
2021/12/09 13:46:08;;;;;;;66.93;9.20;;;0.30;99.90;;;;;;4991279;28;20247;-55
2021/12/09 13:48:45;;;;;;;108.77;14.50;;;;;;;;;;4984330;28;20592;-54
2021/12/09 13:51:30;;;;;;;77.73;10.70;;;0.20;99.90;;;;;;4994457;28;20228;-55
2021/12/09 13:56:46;;;;;;;95.37;12.87;;;0.20;99.90;;;;;;4992041;28;20324;-55
2021/12/09 13:59:20;;;;;;;142.57;19.23;;;0.20;99.90;;;;;;4986152;28;20193;-54
2021/12/09 14:01:46;;;;;;;92.27;12.43;;;0.30;99.90;;;;;;4990718;28;20256;-54
2021/12/09 14:04:13;;;;;;;81.33;11.17;;;0.30;99.90;;;;;;4991030;28;21811;-54
2021/12/09 14:06:52;;;;;;;54.37;7.57;;;0.30;99.90;;;;;;4991617;28;20208;-54
2021/12/09 14:09:18;;;;;;;75.73;10.23;;;;;;;;;;4994507;28;20221;-54
2021/12/09 14:11:48;;;;;;;86.07;11.87;;;;;;;;;;4991829;28;20224;-54
2021/12/09 14:14:23;;;;;;;103.30;14.23;;;0.20;99.90;;;;;;4992729;28;20774;-54
2021/12/09 14:17:00;;;;;;;66.00;9.00;;;0.20;99.90;;;;;;4996340;28;20309;-54
2021/12/09 14:19:58;;;;;;;82.80;11.20;;;0.20;99.90;;;;;;4991959;28;20211;-54